sensor_id;sensor_type;location;lat;lon;timestamp;pressure;altitude;pressure_sealevel;temperature;humidity
13407;BME280;6774;48.208;10.766;2022-07-29T00:02:13;95506.56;;;19.78;88.00
13407;BME280;6774;48.208;10.766;2022-07-29T00:04:42;95500.00;;;19.69;88.14
13407;BME280;6774;48.208;10.766;2022-07-29T00:07:10;95498.06;;;19.64;88.26
13407;BME280;6774;48.208;10.766;2022-07-29T00:09:39;95490.91;;;19.53;88.77
13407;BME280;6774;48.208;10.766;2022-07-29T00:12:19;95485.13;;;19.44;89.74
13407;BME280;6774;48.208;10.766;2022-07-29T00:14:54;95471.09;;;19.54;90.30
13407;BME280;6774;48.208;10.766;2022-07-29T00:17:22;95465.34;;;19.45;90.53
13407;BME280;6774;48.208;10.766;2022-07-29T00:19:51;95467.38;;;19.38;91.15
13407;BME280;6774;48.208;10.766;2022-07-29T00:22:19;95473.34;;;19.57;90.72
13407;BME280;6774;48.208;10.766;2022-07-29T00:24:47;95464.63;;;19.50;90.74
13407;BME280;6774;48.208;10.766;2022-07-29T00:27:16;95458.47;;;19.49;90.71
13407;BME280;6774;48.208;10.766;2022-07-29T00:29:46;95461.69;;;19.51;90.39
13407;BME280;6774;48.208;10.766;2022-07-29T00:32:14;95461.19;;;19.54;90.30
13407;BME280;6774;48.208;10.766;2022-07-29T00:34:42;95460.78;;;19.57;89.99
13407;BME280;6774;48.208;10.766;2022-07-29T00:37:27;95454.06;;;19.43;90.20
13407;BME280;6774;48.208;10.766;2022-07-29T00:39:55;95450.34;;;19.44;90.04
13407;BME280;6774;48.208;10.766;2022-07-29T00:42:23;95449.84;;;19.47;89.57
13407;BME280;6774;48.208;10.766;2022-07-29T00:44:52;95438.03;;;19.43;89.21
13407;BME280;6774;48.208;10.766;2022-07-29T00:47:20;95447.75;;;19.32;89.54
13407;BME280;6774;48.208;10.766;2022-07-29T00:49:48;95448.47;;;19.28;89.99
13407;BME280;6774;48.208;10.766;2022-07-29T00:52:16;95440.84;;;19.53;89.31
13407;BME280;6774;48.208;10.766;2022-07-29T00:54:45;95439.13;;;19.47;89.22
13407;BME280;6774;48.208;10.766;2022-07-29T00:57:13;95443.53;;;19.53;88.83
13407;BME280;6774;48.208;10.766;2022-07-29T00:59:41;95439.72;;;19.49;88.70
13407;BME280;6774;48.208;10.766;2022-07-29T01:02:10;95436.66;;;19.41;88.62
13407;BME280;6774;48.208;10.766;2022-07-29T01:04:39;95436.56;;;19.19;89.30
13407;BME280;6774;48.208;10.766;2022-07-29T01:07:07;95427.31;;;19.10;89.54
13407;BME280;6774;48.208;10.766;2022-07-29T01:09:36;95435.97;;;19.00;89.50
13407;BME280;6774;48.208;10.766;2022-07-29T01:12:15;95428.94;;;18.94;89.91
13407;BME280;6774;48.208;10.766;2022-07-29T01:14:44;95431.50;;;18.72;89.70
13407;BME280;6774;48.208;10.766;2022-07-29T01:17:18;95429.16;;;18.64;90.01
13407;BME280;6774;48.208;10.766;2022-07-29T01:19:53;95420.97;;;18.65;90.17
13407;BME280;6774;48.208;10.766;2022-07-29T01:22:37;95412.06;;;18.77;89.50
13407;BME280;6774;48.208;10.766;2022-07-29T01:25:30;95416.13;;;18.79;89.39
13407;BME280;6774;48.208;10.766;2022-07-29T01:28:10;95409.63;;;18.75;89.42
13407;BME280;6774;48.208;10.766;2022-07-29T01:30:51;95401.03;;;18.73;89.26
13407;BME280;6774;48.208;10.766;2022-07-29T01:33:21;95396.28;;;18.75;89.06
13407;BME280;6774;48.208;10.766;2022-07-29T01:36:12;95406.16;;;18.63;89.01
13407;BME280;6774;48.208;10.766;2022-07-29T01:38:46;95412.94;;;18.54;89.42
13407;BME280;6774;48.208;10.766;2022-07-29T01:41:19;95402.75;;;18.22;89.80
13407;BME280;6774;48.208;10.766;2022-07-29T01:43:52;95409.28;;;18.14;90.23
13407;BME280;6774;48.208;10.766;2022-07-29T01:46:26;95415.44;;;18.15;90.17
13407;BME280;6774;48.208;10.766;2022-07-29T01:48:57;95402.84;;;18.27;89.02
13407;BME280;6774;48.208;10.766;2022-07-29T01:51:31;95404.00;;;18.31;87.69
13407;BME280;6774;48.208;10.766;2022-07-29T01:54:04;95394.44;;;18.35;87.38
13407;BME280;6774;48.208;10.766;2022-07-29T01:56:35;95385.88;;;18.33;87.72
13407;BME280;6774;48.208;10.766;2022-07-29T01:59:05;95387.63;;;18.28;87.97
13407;BME280;6774;48.208;10.766;2022-07-29T02:01:35;95381.28;;;18.17;88.79
13407;BME280;6774;48.208;10.766;2022-07-29T02:04:06;95379.75;;;18.21;88.89
13407;BME280;6774;48.208;10.766;2022-07-29T02:06:38;95377.41;;;18.25;89.30
13407;BME280;6774;48.208;10.766;2022-07-29T02:09:10;95370.78;;;18.27;89.61
13407;BME280;6774;48.208;10.766;2022-07-29T02:11:40;95372.63;;;18.38;89.71
13407;BME280;6774;48.208;10.766;2022-07-29T02:14:13;95357.59;;;18.37;89.54
13407;BME280;6774;48.208;10.766;2022-07-29T02:16:44;95364.50;;;18.33;89.46
13407;BME280;6774;48.208;10.766;2022-07-29T02:19:14;95364.38;;;18.28;89.47
13407;BME280;6774;48.208;10.766;2022-07-29T02:21:44;95356.84;;;18.25;89.73
13407;BME280;6774;48.208;10.766;2022-07-29T02:24:14;95357.63;;;18.09;90.29
13407;BME280;6774;48.208;10.766;2022-07-29T02:26:45;95365.75;;;18.14;90.16
13407;BME280;6774;48.208;10.766;2022-07-29T02:29:14;95353.75;;;18.16;90.08
13407;BME280;6774;48.208;10.766;2022-07-29T02:31:45;95354.25;;;18.13;90.14
13407;BME280;6774;48.208;10.766;2022-07-29T02:34:15;95346.66;;;18.22;89.80
13407;BME280;6774;48.208;10.766;2022-07-29T02:36:45;95347.78;;;18.26;89.54
13407;BME280;6774;48.208;10.766;2022-07-29T02:39:15;95343.94;;;18.34;89.53
13407;BME280;6774;48.208;10.766;2022-07-29T02:41:47;95350.56;;;18.31;89.46
13407;BME280;6774;48.208;10.766;2022-07-29T02:44:17;95340.84;;;18.25;89.24
13407;BME280;6774;48.208;10.766;2022-07-29T02:46:50;95342.00;;;18.29;89.11
13407;BME280;6774;48.208;10.766;2022-07-29T02:49:31;95334.06;;;18.34;89.12
13407;BME280;6774;48.208;10.766;2022-07-29T02:52:04;95341.00;;;18.35;88.91
13407;BME280;6774;48.208;10.766;2022-07-29T02:54:39;95339.97;;;18.08;89.59
13407;BME280;6774;48.208;10.766;2022-07-29T02:57:20;95338.91;;;18.37;88.90
13407;BME280;6774;48.208;10.766;2022-07-29T02:59:51;95333.56;;;18.37;88.81
13407;BME280;6774;48.208;10.766;2022-07-29T03:02:22;95337.38;;;18.41;88.67
13407;BME280;6774;48.208;10.766;2022-07-29T03:04:50;95345.09;;;18.38;88.61
13407;BME280;6774;48.208;10.766;2022-07-29T03:07:20;95341.13;;;18.40;89.01
13407;BME280;6774;48.208;10.766;2022-07-29T03:09:48;95332.03;;;18.41;88.93
13407;BME280;6774;48.208;10.766;2022-07-29T03:12:17;95340.06;;;18.41;88.95
13407;BME280;6774;48.208;10.766;2022-07-29T03:14:46;95337.38;;;18.41;89.01
13407;BME280;6774;48.208;10.766;2022-07-29T03:17:15;95333.16;;;18.45;89.08
13407;BME280;6774;48.208;10.766;2022-07-29T03:19:46;95333.75;;;18.47;88.93
13407;BME280;6774;48.208;10.766;2022-07-29T03:22:14;95332.59;;;18.43;89.08
13407;BME280;6774;48.208;10.766;2022-07-29T03:24:45;95342.00;;;18.46;89.25
13407;BME280;6774;48.208;10.766;2022-07-29T03:27:13;95339.56;;;18.44;89.19
13407;BME280;6774;48.208;10.766;2022-07-29T03:29:41;95348.63;;;18.43;89.33
13407;BME280;6774;48.208;10.766;2022-07-29T03:32:16;95357.72;;;18.42;89.24
13407;BME280;6774;48.208;10.766;2022-07-29T03:34:51;95352.84;;;18.39;89.14
13407;BME280;6774;48.208;10.766;2022-07-29T03:37:19;95359.72;;;18.35;89.05
13407;BME280;6774;48.208;10.766;2022-07-29T03:39:49;95356.38;;;18.28;88.98
13407;BME280;6774;48.208;10.766;2022-07-29T03:42:19;95362.69;;;18.22;88.89
13407;BME280;6774;48.208;10.766;2022-07-29T03:44:50;95364.31;;;18.23;88.83
13407;BME280;6774;48.208;10.766;2022-07-29T03:47:23;95369.09;;;18.21;88.78
13407;BME280;6774;48.208;10.766;2022-07-29T03:50:15;95372.22;;;18.18;88.54
13407;BME280;6774;48.208;10.766;2022-07-29T03:52:43;95375.59;;;18.13;88.79
13407;BME280;6774;48.208;10.766;2022-07-29T03:55:12;95368.16;;;18.15;88.58
13407;BME280;6774;48.208;10.766;2022-07-29T03:57:41;95376.91;;;18.11;88.43
13407;BME280;6774;48.208;10.766;2022-07-29T04:00:10;95381.09;;;18.07;88.39
13407;BME280;6774;48.208;10.766;2022-07-29T04:02:38;95373.06;;;18.07;88.48
13407;BME280;6774;48.208;10.766;2022-07-29T04:05:11;95385.84;;;18.05;87.94
13407;BME280;6774;48.208;10.766;2022-07-29T04:07:43;95387.16;;;18.02;88.38
13407;BME280;6774;48.208;10.766;2022-07-29T04:10:11;95389.94;;;17.96;88.32
13407;BME280;6774;48.208;10.766;2022-07-29T04:12:39;95389.94;;;17.96;88.16
13407;BME280;6774;48.208;10.766;2022-07-29T04:15:08;95388.88;;;17.97;87.91
13407;BME280;6774;48.208;10.766;2022-07-29T04:17:36;95394.00;;;17.98;87.93
13407;BME280;6774;48.208;10.766;2022-07-29T04:20:05;95390.50;;;17.98;88.06
13407;BME280;6774;48.208;10.766;2022-07-29T04:22:33;95401.31;;;18.03;87.92
13407;BME280;6774;48.208;10.766;2022-07-29T04:25:03;95402.94;;;18.04;87.71
13407;BME280;6774;48.208;10.766;2022-07-29T04:27:31;95400.63;;;17.96;87.91
13407;BME280;6774;48.208;10.766;2022-07-29T04:29:59;95403.84;;;17.98;88.11
13407;BME280;6774;48.208;10.766;2022-07-29T04:32:26;95408.16;;;17.99;88.37
13407;BME280;6774;48.208;10.766;2022-07-29T04:34:54;95407.09;;;18.00;88.23
13407;BME280;6774;48.208;10.766;2022-07-29T04:37:22;95410.50;;;17.95;88.31
13407;BME280;6774;48.208;10.766;2022-07-29T04:39:50;95412.91;;;17.97;88.35
13407;BME280;6774;48.208;10.766;2022-07-29T04:42:19;95422.66;;;18.03;88.17
13407;BME280;6774;48.208;10.766;2022-07-29T04:44:53;95426.09;;;18.15;88.37
13407;BME280;6774;48.208;10.766;2022-07-29T04:47:21;95428.91;;;18.20;88.29
13407;BME280;6774;48.208;10.766;2022-07-29T04:49:49;95430.72;;;18.31;88.25
13407;BME280;6774;48.208;10.766;2022-07-29T04:52:17;95431.97;;;18.40;88.17
13407;BME280;6774;48.208;10.766;2022-07-29T04:54:45;95436.31;;;18.46;87.96
13407;BME280;6774;48.208;10.766;2022-07-29T04:57:12;95430.91;;;18.41;87.39
13407;BME280;6774;48.208;10.766;2022-07-29T04:59:42;95431.91;;;18.52;87.29
13407;BME280;6774;48.208;10.766;2022-07-29T05:02:10;95426.88;;;18.56;87.08
13407;BME280;6774;48.208;10.766;2022-07-29T05:04:38;95430.81;;;18.65;86.93
13407;BME280;6774;48.208;10.766;2022-07-29T05:07:06;95435.88;;;18.78;86.78
13407;BME280;6774;48.208;10.766;2022-07-29T05:09:33;95443.84;;;18.90;86.74
13407;BME280;6774;48.208;10.766;2022-07-29T05:12:01;95434.72;;;19.02;86.53
13407;BME280;6774;48.208;10.766;2022-07-29T05:14:29;95437.56;;;19.13;86.21
13407;BME280;6774;48.208;10.766;2022-07-29T05:16:58;95427.00;;;19.23;86.07
13407;BME280;6774;48.208;10.766;2022-07-29T05:19:26;95444.84;;;19.34;86.00
13407;BME280;6774;48.208;10.766;2022-07-29T05:21:54;95440.44;;;19.45;85.93
13407;BME280;6774;48.208;10.766;2022-07-29T05:24:22;95439.78;;;19.54;85.70
13407;BME280;6774;48.208;10.766;2022-07-29T05:26:50;95444.22;;;19.60;85.41
13407;BME280;6774;48.208;10.766;2022-07-29T05:29:18;95440.88;;;19.70;84.96
13407;BME280;6774;48.208;10.766;2022-07-29T05:32:07;95446.78;;;19.72;84.95
13407;BME280;6774;48.208;10.766;2022-07-29T05:34:35;95446.06;;;19.77;84.78
13407;BME280;6774;48.208;10.766;2022-07-29T05:37:15;95443.97;;;19.84;84.54
13407;BME280;6774;48.208;10.766;2022-07-29T05:39:43;95435.53;;;19.92;84.51
13407;BME280;6774;48.208;10.766;2022-07-29T05:42:16;95438.94;;;20.04;83.96
13407;BME280;6774;48.208;10.766;2022-07-29T05:44:43;95435.31;;;20.15;83.66
13407;BME280;6774;48.208;10.766;2022-07-29T05:47:13;95433.81;;;20.25;83.42
13407;BME280;6774;48.208;10.766;2022-07-29T05:49:40;95442.78;;;20.35;82.82
13407;BME280;6774;48.208;10.766;2022-07-29T05:52:08;95446.16;;;20.48;82.76
13407;BME280;6774;48.208;10.766;2022-07-29T05:54:36;95444.34;;;20.53;82.68
13407;BME280;6774;48.208;10.766;2022-07-29T05:57:05;95452.50;;;20.63;81.57
13407;BME280;6774;48.208;10.766;2022-07-29T05:59:35;95451.50;;;20.69;81.33
13407;BME280;6774;48.208;10.766;2022-07-29T06:02:03;95451.00;;;20.72;80.64
13407;BME280;6774;48.208;10.766;2022-07-29T06:04:33;95453.41;;;20.74;81.64
13407;BME280;6774;48.208;10.766;2022-07-29T06:07:01;95456.78;;;20.86;80.84
13407;BME280;6774;48.208;10.766;2022-07-29T06:09:29;95452.84;;;20.94;81.74
13407;BME280;6774;48.208;10.766;2022-07-29T06:11:56;95455.34;;;21.06;80.81
13407;BME280;6774;48.208;10.766;2022-07-29T06:14:25;95449.66;;;21.02;80.60
13407;BME280;6774;48.208;10.766;2022-07-29T06:16:53;95455.63;;;21.09;80.43
13407;BME280;6774;48.208;10.766;2022-07-29T06:19:20;95451.50;;;21.23;79.17
13407;BME280;6774;48.208;10.766;2022-07-29T06:21:50;95450.59;;;21.40;79.55
13407;BME280;6774;48.208;10.766;2022-07-29T06:24:17;95451.97;;;21.47;78.46
13407;BME280;6774;48.208;10.766;2022-07-29T06:26:46;95452.53;;;21.49;78.50
13407;BME280;6774;48.208;10.766;2022-07-29T06:29:14;95454.34;;;21.44;78.11
13407;BME280;6774;48.208;10.766;2022-07-29T06:31:42;95454.81;;;21.36;78.28
13407;BME280;6774;48.208;10.766;2022-07-29T06:34:09;95477.50;;;21.50;78.02
13407;BME280;6774;48.208;10.766;2022-07-29T06:36:39;95468.44;;;21.61;78.46
13407;BME280;6774;48.208;10.766;2022-07-29T06:39:08;95475.50;;;21.72;77.40
13407;BME280;6774;48.208;10.766;2022-07-29T06:41:38;95477.72;;;21.80;74.74
13407;BME280;6774;48.208;10.766;2022-07-29T06:44:08;95470.25;;;21.93;73.99
13407;BME280;6774;48.208;10.766;2022-07-29T06:46:37;95473.91;;;21.71;74.32
13407;BME280;6774;48.208;10.766;2022-07-29T06:49:04;95476.53;;;21.66;75.19
13407;BME280;6774;48.208;10.766;2022-07-29T06:51:33;95476.31;;;21.73;75.53
13407;BME280;6774;48.208;10.766;2022-07-29T06:54:02;95472.13;;;21.92;74.87
13407;BME280;6774;48.208;10.766;2022-07-29T06:56:34;95472.81;;;22.09;74.99
13407;BME280;6774;48.208;10.766;2022-07-29T06:59:06;95481.78;;;22.30;73.50
13407;BME280;6774;48.208;10.766;2022-07-29T07:01:35;95478.16;;;22.62;73.08
13407;BME280;6774;48.208;10.766;2022-07-29T07:04:03;95480.00;;;22.56;73.52
13407;BME280;6774;48.208;10.766;2022-07-29T07:06:31;95485.00;;;22.22;74.66
13407;BME280;6774;48.208;10.766;2022-07-29T07:08:59;95482.44;;;22.58;74.48
13407;BME280;6774;48.208;10.766;2022-07-29T07:11:26;95490.03;;;22.76;74.75
13407;BME280;6774;48.208;10.766;2022-07-29T07:13:56;95485.19;;;22.73;73.90
13407;BME280;6774;48.208;10.766;2022-07-29T07:16:29;95488.69;;;22.68;74.13
13407;BME280;6774;48.208;10.766;2022-07-29T07:18:57;95484.91;;;22.69;73.55
13407;BME280;6774;48.208;10.766;2022-07-29T07:21:26;95485.31;;;22.36;73.78
13407;BME280;6774;48.208;10.766;2022-07-29T07:23:56;95487.22;;;22.40;73.24
13407;BME280;6774;48.208;10.766;2022-07-29T07:26:25;95484.13;;;22.79;73.33
13407;BME280;6774;48.208;10.766;2022-07-29T07:28:52;95482.03;;;22.86;74.36
13407;BME280;6774;48.208;10.766;2022-07-29T07:31:22;95483.16;;;23.16;73.72
13407;BME280;6774;48.208;10.766;2022-07-29T07:33:50;95481.03;;;23.28;71.50
13407;BME280;6774;48.208;10.766;2022-07-29T07:36:18;95484.25;;;23.30;71.09
13407;BME280;6774;48.208;10.766;2022-07-29T07:38:46;95497.13;;;22.97;71.97
13407;BME280;6774;48.208;10.766;2022-07-29T07:41:14;95488.03;;;23.39;71.70
13407;BME280;6774;48.208;10.766;2022-07-29T07:43:42;95491.28;;;23.67;71.69
13407;BME280;6774;48.208;10.766;2022-07-29T07:46:09;95495.59;;;23.83;70.28
13407;BME280;6774;48.208;10.766;2022-07-29T07:48:39;95496.44;;;23.68;69.23
13407;BME280;6774;48.208;10.766;2022-07-29T07:51:07;95491.84;;;23.69;70.15
13407;BME280;6774;48.208;10.766;2022-07-29T07:53:35;95491.81;;;23.89;71.54
13407;BME280;6774;48.208;10.766;2022-07-29T07:56:03;95494.22;;;24.01;69.71
13407;BME280;6774;48.208;10.766;2022-07-29T07:58:37;95489.63;;;24.01;69.21
13407;BME280;6774;48.208;10.766;2022-07-29T08:01:05;95489.09;;;24.09;70.72
13407;BME280;6774;48.208;10.766;2022-07-29T08:03:33;95498.06;;;23.59;69.08
13407;BME280;6774;48.208;10.766;2022-07-29T08:06:04;95493.19;;;23.81;68.55
13407;BME280;6774;48.208;10.766;2022-07-29T08:08:32;95496.13;;;23.44;69.70
13407;BME280;6774;48.208;10.766;2022-07-29T08:11:00;95497.72;;;23.30;70.14
13407;BME280;6774;48.208;10.766;2022-07-29T08:13:36;95506.25;;;22.86;71.12
13407;BME280;6774;48.208;10.766;2022-07-29T08:16:05;95501.97;;;23.01;71.50
13407;BME280;6774;48.208;10.766;2022-07-29T08:18:43;95501.44;;;22.98;72.23
13407;BME280;6774;48.208;10.766;2022-07-29T08:21:12;95501.72;;;23.22;71.51
13407;BME280;6774;48.208;10.766;2022-07-29T08:23:41;95509.59;;;23.54;70.15
13407;BME280;6774;48.208;10.766;2022-07-29T08:26:25;95503.16;;;23.66;70.08
13407;BME280;6774;48.208;10.766;2022-07-29T08:28:53;95507.47;;;23.72;71.11
13407;BME280;6774;48.208;10.766;2022-07-29T08:31:20;95508.53;;;23.96;70.42
13407;BME280;6774;48.208;10.766;2022-07-29T08:33:48;95507.97;;;24.15;68.82
13407;BME280;6774;48.208;10.766;2022-07-29T08:36:17;95510.06;;;24.28;67.98
13407;BME280;6774;48.208;10.766;2022-07-29T08:38:47;95507.38;;;24.38;68.54
13407;BME280;6774;48.208;10.766;2022-07-29T08:41:15;95505.34;;;24.74;67.27
13407;BME280;6774;48.208;10.766;2022-07-29T08:43:46;95507.66;;;24.36;68.68
13407;BME280;6774;48.208;10.766;2022-07-29T08:46:13;95502.91;;;24.78;66.97
13407;BME280;6774;48.208;10.766;2022-07-29T08:48:42;95509.84;;;24.94;67.12
13407;BME280;6774;48.208;10.766;2022-07-29T08:51:13;95511.19;;;25.07;65.87
13407;BME280;6774;48.208;10.766;2022-07-29T08:53:44;95504.94;;;25.01;65.73
13407;BME280;6774;48.208;10.766;2022-07-29T08:56:14;95501.84;;;24.74;65.86
13407;BME280;6774;48.208;10.766;2022-07-29T08:58:43;95515.66;;;24.62;67.15
13407;BME280;6774;48.208;10.766;2022-07-29T09:01:22;95519.66;;;24.75;65.71
13407;BME280;6774;48.208;10.766;2022-07-29T09:04:10;95515.75;;;24.96;67.24
13407;BME280;6774;48.208;10.766;2022-07-29T09:06:43;95515.44;;;25.13;66.80
13407;BME280;6774;48.208;10.766;2022-07-29T09:09:13;95524.75;;;25.36;64.69
13407;BME280;6774;48.208;10.766;2022-07-29T09:11:42;95519.88;;;25.38;65.77
13407;BME280;6774;48.208;10.766;2022-07-29T09:14:11;95513.31;;;25.49;64.46
13407;BME280;6774;48.208;10.766;2022-07-29T09:16:51;95514.03;;;25.60;65.16
13407;BME280;6774;48.208;10.766;2022-07-29T09:19:25;95513.16;;;25.69;63.36
13407;BME280;6774;48.208;10.766;2022-07-29T09:21:55;95514.38;;;25.87;63.29
13407;BME280;6774;48.208;10.766;2022-07-29T09:24:41;95508.91;;;25.97;62.94
13407;BME280;6774;48.208;10.766;2022-07-29T09:27:20;95520.06;;;25.91;62.34
13407;BME280;6774;48.208;10.766;2022-07-29T09:29:56;95521.25;;;26.32;63.97
13407;BME280;6774;48.208;10.766;2022-07-29T09:32:25;95507.81;;;26.75;62.23
13407;BME280;6774;48.208;10.766;2022-07-29T09:35:14;95507.31;;;27.16;60.96
13407;BME280;6774;48.208;10.766;2022-07-29T09:37:43;95510.84;;;27.35;60.01
13407;BME280;6774;48.208;10.766;2022-07-29T09:40:14;95499.38;;;27.76;56.90
13407;BME280;6774;48.208;10.766;2022-07-29T09:42:42;95507.50;;;27.57;59.30
13407;BME280;6774;48.208;10.766;2022-07-29T09:45:11;95505.97;;;27.70;58.89
13407;BME280;6774;48.208;10.766;2022-07-29T09:47:41;95502.91;;;27.58;59.29
13407;BME280;6774;48.208;10.766;2022-07-29T09:50:11;95499.97;;;26.98;59.69
13407;BME280;6774;48.208;10.766;2022-07-29T09:52:46;95504.84;;;26.96;59.26
13407;BME280;6774;48.208;10.766;2022-07-29T09:55:16;95503.84;;;27.48;60.08
13407;BME280;6774;48.208;10.766;2022-07-29T09:57:45;95505.31;;;28.11;57.67
13407;BME280;6774;48.208;10.766;2022-07-29T10:00:16;95497.47;;;28.09;56.26
13407;BME280;6774;48.208;10.766;2022-07-29T10:02:46;95497.22;;;27.92;59.64
13407;BME280;6774;48.208;10.766;2022-07-29T10:05:19;95493.22;;;27.89;57.36
13407;BME280;6774;48.208;10.766;2022-07-29T10:07:49;95494.84;;;27.53;57.76
13407;BME280;6774;48.208;10.766;2022-07-29T10:10:23;95499.25;;;28.14;58.11
13407;BME280;6774;48.208;10.766;2022-07-29T10:12:53;95500.13;;;27.63;57.12
13407;BME280;6774;48.208;10.766;2022-07-29T10:15:22;95503.63;;;26.64;58.58
13407;BME280;6774;48.208;10.766;2022-07-29T10:17:51;95492.72;;;27.49;57.97
13407;BME280;6774;48.208;10.766;2022-07-29T10:20:20;95488.47;;;27.81;55.94
13407;BME280;6774;48.208;10.766;2022-07-29T10:22:48;95482.47;;;28.44;54.64
13407;BME280;6774;48.208;10.766;2022-07-29T10:25:21;95488.72;;;27.80;57.14
13407;BME280;6774;48.208;10.766;2022-07-29T10:27:50;95491.09;;;27.67;57.10
13407;BME280;6774;48.208;10.766;2022-07-29T10:30:20;95492.06;;;27.58;55.59
13407;BME280;6774;48.208;10.766;2022-07-29T10:33:07;95487.53;;;27.72;56.11
13407;BME280;6774;48.208;10.766;2022-07-29T10:35:44;95484.72;;;27.77;56.26
13407;BME280;6774;48.208;10.766;2022-07-29T10:38:41;95487.88;;;26.90;58.00
13407;BME280;6774;48.208;10.766;2022-07-29T10:41:50;95478.81;;;27.37;57.00
13407;BME280;6774;48.208;10.766;2022-07-29T10:44:25;95478.00;;;27.56;57.77
13407;BME280;6774;48.208;10.766;2022-07-29T10:46:54;95470.91;;;27.41;59.99
13407;BME280;6774;48.208;10.766;2022-07-29T10:49:24;95474.09;;;27.81;59.04
13407;BME280;6774;48.208;10.766;2022-07-29T10:52:01;95469.59;;;28.03;57.02
13407;BME280;6774;48.208;10.766;2022-07-29T10:54:46;95479.00;;;27.60;58.13
13407;BME280;6774;48.208;10.766;2022-07-29T10:57:25;95473.00;;;26.87;58.00
13407;BME280;6774;48.208;10.766;2022-07-29T11:00:31;95462.78;;;27.22;58.89
13407;BME280;6774;48.208;10.766;2022-07-29T11:02:59;95457.34;;;27.92;55.95
13407;BME280;6774;48.208;10.766;2022-07-29T11:05:56;95459.03;;;27.88;56.56
13407;BME280;6774;48.208;10.766;2022-07-29T11:08:25;95459.63;;;27.85;56.19
13407;BME280;6774;48.208;10.766;2022-07-29T11:14:18;95454.03;;;29.05;53.52
13407;BME280;6774;48.208;10.766;2022-07-29T11:17:07;95448.41;;;28.88;54.01
13407;BME280;6774;48.208;10.766;2022-07-29T11:19:39;95453.38;;;29.22;52.21
13407;BME280;6774;48.208;10.766;2022-07-29T11:22:31;95444.09;;;29.37;53.62
13407;BME280;6774;48.208;10.766;2022-07-29T11:25:15;95451.53;;;29.09;49.49
13407;BME280;6774;48.208;10.766;2022-07-29T11:27:44;95443.59;;;28.85;49.77
13407;BME280;6774;48.208;10.766;2022-07-29T11:30:13;95448.22;;;28.16;53.26
13407;BME280;6774;48.208;10.766;2022-07-29T11:32:43;95453.47;;;28.26;52.70
13407;BME280;6774;48.208;10.766;2022-07-29T11:35:16;95444.41;;;28.17;53.53
13407;BME280;6774;48.208;10.766;2022-07-29T11:38:24;95443.59;;;28.02;51.64
13407;BME280;6774;48.208;10.766;2022-07-29T11:41:19;95445.59;;;28.24;52.61
13407;BME280;6774;48.208;10.766;2022-07-29T11:43:50;95439.19;;;28.20;52.40
13407;BME280;6774;48.208;10.766;2022-07-29T11:46:42;95439.00;;;28.30;53.08
13407;BME280;6774;48.208;10.766;2022-07-29T11:49:18;95440.19;;;28.11;52.61
13407;BME280;6774;48.208;10.766;2022-07-29T11:51:58;95423.91;;;28.24;53.35
13407;BME280;6774;48.208;10.766;2022-07-29T11:54:31;95428.59;;;27.91;54.61
13407;BME280;6774;48.208;10.766;2022-07-29T11:57:19;95430.00;;;27.56;54.58
13407;BME280;6774;48.208;10.766;2022-07-29T11:59:47;95425.19;;;27.53;54.76
13407;BME280;6774;48.208;10.766;2022-07-29T12:02:16;95423.88;;;27.97;53.03
13407;BME280;6774;48.208;10.766;2022-07-29T12:05:06;95429.63;;;27.63;56.20
13407;BME280;6774;48.208;10.766;2022-07-29T12:07:37;95423.88;;;27.83;54.82
13407;BME280;6774;48.208;10.766;2022-07-29T12:10:12;95424.38;;;27.71;54.26
13407;BME280;6774;48.208;10.766;2022-07-29T12:12:55;95420.69;;;28.09;54.58
13407;BME280;6774;48.208;10.766;2022-07-29T12:15:24;95426.13;;;28.09;54.25
13407;BME280;6774;48.208;10.766;2022-07-29T12:18:17;95421.84;;;27.75;55.25
13407;BME280;6774;48.208;10.766;2022-07-29T12:20:56;95423.72;;;27.42;53.83
13407;BME280;6774;48.208;10.766;2022-07-29T12:23:29;95419.72;;;27.39;55.02
13407;BME280;6774;48.208;10.766;2022-07-29T12:26:03;95417.72;;;27.45;55.86
13407;BME280;6774;48.208;10.766;2022-07-29T12:28:37;95424.59;;;27.56;55.79
13407;BME280;6774;48.208;10.766;2022-07-29T12:31:05;95415.47;;;27.33;55.59
13407;BME280;6774;48.208;10.766;2022-07-29T12:33:34;95424.50;;;27.29;56.86
13407;BME280;6774;48.208;10.766;2022-07-29T12:36:04;95421.66;;;27.20;57.29
13407;BME280;6774;48.208;10.766;2022-07-29T12:38:36;95434.81;;;26.70;57.56
13407;BME280;6774;48.208;10.766;2022-07-29T12:41:05;95434.19;;;26.06;58.81
13407;BME280;6774;48.208;10.766;2022-07-29T12:43:33;95433.94;;;26.03;59.90
13407;BME280;6774;48.208;10.766;2022-07-29T12:46:12;95432.84;;;26.04;60.40
13407;BME280;6774;48.208;10.766;2022-07-29T12:48:42;95427.66;;;26.31;58.95
13407;BME280;6774;48.208;10.766;2022-07-29T12:51:12;95429.97;;;26.19;59.14
13407;BME280;6774;48.208;10.766;2022-07-29T12:54:01;95421.50;;;26.50;57.52
13407;BME280;6774;48.208;10.766;2022-07-29T12:56:30;95431.38;;;26.41;58.57
13407;BME280;6774;48.208;10.766;2022-07-29T12:59:16;95423.59;;;26.10;58.03
13407;BME280;6774;48.208;10.766;2022-07-29T13:01:44;95432.94;;;25.94;58.82
13407;BME280;6774;48.208;10.766;2022-07-29T13:04:24;95428.69;;;25.88;59.46
13407;BME280;6774;48.208;10.766;2022-07-29T13:06:59;95427.09;;;25.52;59.57
13407;BME280;6774;48.208;10.766;2022-07-29T13:09:38;95436.06;;;25.48;59.79
13407;BME280;6774;48.208;10.766;2022-07-29T13:12:08;95438.22;;;25.12;59.26
13407;BME280;6774;48.208;10.766;2022-07-29T13:14:38;95442.41;;;25.33;60.35
13407;BME280;6774;48.208;10.766;2022-07-29T13:17:09;95446.44;;;25.31;60.17
13407;BME280;6774;48.208;10.766;2022-07-29T13:19:39;95441.94;;;25.55;59.61
13407;BME280;6774;48.208;10.766;2022-07-29T13:22:09;95448.94;;;25.22;60.56
13407;BME280;6774;48.208;10.766;2022-07-29T13:24:48;95443.34;;;25.13;59.14
13407;BME280;6774;48.208;10.766;2022-07-29T13:27:17;95439.63;;;25.04;60.54
13407;BME280;6774;48.208;10.766;2022-07-29T13:29:45;95443.94;;;25.05;60.11